Green Spring, West Virginia
Current Conditions -  °F | °C
As of 3:32 AM on Friday 19 Dec 2014 (Local Time) from KCBE Reporting Station
Overcast Overcast  
Wind Chill: 25°   Ceiling: 2800
Heat Index: 32°   Visibility: 10mi
Dew Point: 21°   Wind: 8mph
Humidity: 64%   Direction: 260°W
Pressure: 30.18"   Gusts: 22mph
Location:  39.53°N, 78.62°W
Report Text: KCBE 190832Z AUTO 26007G19KT 10SM OVC028 00/M06 A3018 RMK AO1
Loading
Personal Weather Stations






























Interactive Weather Map New forecast layout! Learn more

10-Day Weather Forecast

Advertisements
Track Severe Weather on mobile